THY3D LTAF-EDDL
Flight info
| Callsign | THY3D |
|---|---|
| Flight time | 3h 52m |
| Altitude | 34000 |
| Route | KEMER UW75 BAG UL605 YAVRU DCT UNSAV DCT DIGBO DCT RILEX DCT UTEKA DCT BABIT/N0452F360 DCT SASAL DCT DEXIT DCT SULUS T852 EKSAK DCT DOMUX DOMUX2G |
| Aircraft | B738/M-SDE2E3FGHIRWXY/LB1 |
Departure
| Time | 2026-04-15 09:35 |
|---|---|
| Airport | Adana Şakirpaşa Airport (LTAF) |
Arrival
| Time | 2026-04-15 13:27 |
|---|---|
| Airport | Düsseldorf Airport (EDDL) |
| Time | Latitude | Longitude | Altitude | Speed | Heading |
|---|---|---|---|---|---|
| 2026-04-15 09:08 | 36.98417 | 35.29573 | 71 ft | 0 kts | 141° |
| 2026-04-15 09:24 | 36.98422 | 35.29568 | 71 ft | 2 kts | 141° |
| 2026-04-15 09:24 | 36.98434 | 35.29557 | 71 ft | 2 kts | 147° |
| 2026-04-15 09:24 | 36.98447 | 35.29547 | 71 ft | 2 kts | 153° |
| 2026-04-15 09:25 | 36.98461 | 35.29539 | 71 ft | 2 kts | 160° |
| 2026-04-15 09:25 | 36.98475 | 35.29534 | 71 ft | 2 kts | 166° |
| 2026-04-15 09:25 | 36.98490 | 35.29530 | 71 ft | 2 kts | 173° |
| 2026-04-15 09:25 | 36.98505 | 35.29529 | 71 ft | 2 kts | 179° |
| 2026-04-15 09:26 | 36.98519 | 35.29530 | 71 ft | 2 kts | 185° |
| 2026-04-15 09:26 | 36.98528 | 35.29531 | 71 ft | 0 kts | 189° |
| 2026-04-15 09:26 | 36.98531 | 35.29532 | 71 ft | 0 kts | 190° |
| 2026-04-15 09:28 | 36.98518 | 35.29528 | 71 ft | 5 kts | 192° |
| 2026-04-15 09:28 | 36.98461 | 35.29486 | 71 ft | 12 kts | 228° |
| 2026-04-15 09:28 | 36.98411 | 35.29403 | 71 ft | 9 kts | 234° |
| 2026-04-15 09:28 | 36.98375 | 35.29339 | 71 ft | 8 kts | 233° |
| 2026-04-15 09:29 | 36.98361 | 35.29275 | 71 ft | 8 kts | 295° |
| 2026-04-15 09:29 | 36.98406 | 35.29227 | 71 ft | 9 kts | 320° |
| 2026-04-15 09:29 | 36.98435 | 35.29135 | 71 ft | 13 kts | 278° |
| 2026-04-15 09:29 | 36.98450 | 35.29007 | 71 ft | 16 kts | 278° |
| 2026-04-15 09:30 | 36.98456 | 35.28856 | 71 ft | 16 kts | 252° |
| 2026-04-15 09:30 | 36.98395 | 35.28742 | 71 ft | 16 kts | 233° |
| 2026-04-15 09:30 | 36.98321 | 35.28616 | 71 ft | 19 kts | 233° |
| 2026-04-15 09:30 | 36.98234 | 35.28468 | 71 ft | 22 kts | 233° |
| 2026-04-15 09:31 | 36.98137 | 35.28305 | 71 ft | 23 kts | 233° |
| 2026-04-15 09:31 | 36.98037 | 35.28136 | 71 ft | 24 kts | 232° |
| 2026-04-15 09:31 | 36.97935 | 35.27964 | 71 ft | 25 kts | 233° |
| 2026-04-15 09:31 | 36.97825 | 35.27779 | 71 ft | 27 kts | 233° |
| 2026-04-15 09:32 | 36.97715 | 35.27593 | 71 ft | 26 kts | 233° |
| 2026-04-15 09:32 | 36.97611 | 35.27418 | 71 ft | 23 kts | 234° |
| 2026-04-15 09:32 | 36.97523 | 35.27267 | 71 ft | 19 kts | 232° |
| 2026-04-15 09:32 | 36.97451 | 35.27148 | 71 ft | 16 kts | 233° |
| 2026-04-15 09:33 | 36.97390 | 35.27030 | 71 ft | 15 kts | 251° |
| 2026-04-15 09:33 | 36.97395 | 35.26907 | 71 ft | 13 kts | 297° |
| 2026-04-15 09:33 | 36.97459 | 35.26831 | 71 ft | 11 kts | 322° |
| 2026-04-15 09:33 | 36.97506 | 35.26844 | 71 ft | 6 kts | 51° |
| 2026-04-15 09:34 | 36.97510 | 35.26851 | 71 ft | 0 kts | 52° |
| 2026-04-15 09:34 | 36.97549 | 35.26915 | 71 ft | 39 kts | 53° |
| 2026-04-15 09:34 | 36.97865 | 35.27450 | 71 ft | 111 kts | 53° |
| 2026-04-15 09:34 | 36.98455 | 35.28445 | 73 ft | 170 kts | 53° |
| 2026-04-15 09:35 | 36.99184 | 35.29688 | 570 ft | 179 kts | 53° |
| 2026-04-15 09:35 | 36.99877 | 35.30889 | 1444 ft | 169 kts | 54° |
| 2026-04-15 09:35 | 37.00561 | 35.32101 | 1902 ft | 176 kts | 54° |
| 2026-04-15 09:35 | 37.01293 | 35.33403 | 2218 ft | 192 kts | 54° |
| 2026-04-15 09:36 | 37.02070 | 35.34804 | 2703 ft | 201 kts | 54° |
| 2026-04-15 09:36 | 37.02889 | 35.36270 | 3230 ft | 212 kts | 53° |
| 2026-04-15 09:36 | 37.03758 | 35.37792 | 3800 ft | 223 kts | 53° |
| 2026-04-15 09:36 | 37.04684 | 35.39405 | 4431 ft | 232 kts | 52° |
| 2026-04-15 09:37 | 37.05642 | 35.41056 | 5068 ft | 242 kts | 53° |
| 2026-04-15 09:37 | 37.06336 | 35.42992 | 5636 ft | 253 kts | 83° |
| 2026-04-15 09:37 | 37.06113 | 35.45210 | 6089 ft | 267 kts | 116° |
| 2026-04-15 09:37 | 37.04894 | 35.46903 | 6693 ft | 271 kts | 155° |
| 2026-04-15 09:38 | 37.03086 | 35.47432 | 7328 ft | 274 kts | 185° |
| 2026-04-15 09:38 | 37.01361 | 35.46696 | 8479 ft | 259 kts | 216° |
| 2026-04-15 09:38 | 37.00222 | 35.45013 | 9175 ft | 265 kts | 244° |
| 2026-04-15 09:38 | 36.99623 | 35.42773 | 9768 ft | 273 kts | 250° |
| 2026-04-15 09:39 | 36.99064 | 35.40522 | 10409 ft | 279 kts | 251° |
| 2026-04-15 09:39 | 36.98513 | 35.38143 | 10831 ft | 293 kts | 251° |
| 2026-04-15 09:39 | 36.97880 | 35.35693 | 11496 ft | 297 kts | 250° |
| 2026-04-15 09:39 | 36.97255 | 35.33247 | 12103 ft | 302 kts | 250° |
| 2026-04-15 09:40 | 36.96622 | 35.30724 | 12708 ft | 307 kts | 250° |
| 2026-04-15 09:40 | 36.96088 | 35.28143 | 13247 ft | 317 kts | 261° |
| 2026-04-15 09:40 | 36.96183 | 35.25305 | 13479 ft | 338 kts | 279° |
| 2026-04-15 09:40 | 36.96847 | 35.22452 | 14000 ft | 346 kts | 284° |
| 2026-04-15 09:41 | 36.97576 | 35.19564 | 14549 ft | 352 kts | 285° |
| 2026-04-15 09:41 | 36.98431 | 35.16659 | 14976 ft | 363 kts | 295° |
| 2026-04-15 09:41 | 36.99925 | 35.14058 | 15543 ft | 372 kts | 312° |
| 2026-04-15 09:41 | 37.01940 | 35.12071 | 16014 ft | 381 kts | 327° |
| 2026-04-15 09:42 | 37.04391 | 35.10709 | 16460 ft | 390 kts | 341° |
| 2026-04-15 09:42 | 37.07028 | 35.09966 | 17048 ft | 392 kts | 350° |
| 2026-04-15 09:42 | 37.09670 | 35.09331 | 17910 ft | 384 kts | 343° |
| 2026-04-15 09:42 | 37.12189 | 35.08184 | 18357 ft | 387 kts | 332° |
| 2026-04-15 09:43 | 37.14531 | 35.06559 | 18591 ft | 396 kts | 326° |
| 2026-04-15 09:43 | 37.16874 | 35.04662 | 18711 ft | 408 kts | 325° |
| 2026-04-15 09:43 | 37.19304 | 35.02761 | 19057 ft | 415 kts | 326° |
| 2026-04-15 09:43 | 37.21802 | 35.00881 | 19449 ft | 419 kts | 327° |
| 2026-04-15 09:44 | 37.24309 | 34.99020 | 19879 ft | 422 kts | 327° |
| 2026-04-15 09:44 | 37.26814 | 34.97164 | 20301 ft | 425 kts | 327° |
| 2026-04-15 09:44 | 37.29361 | 34.95279 | 20719 ft | 427 kts | 327° |
| 2026-04-15 09:44 | 37.31930 | 34.93381 | 21143 ft | 429 kts | 327° |
| 2026-04-15 09:45 | 37.34490 | 34.91491 | 21543 ft | 431 kts | 327° |
| 2026-04-15 09:45 | 37.37090 | 34.89573 | 21920 ft | 434 kts | 327° |
| 2026-04-15 09:45 | 37.39693 | 34.87652 | 22314 ft | 436 kts | 327° |
| 2026-04-15 09:45 | 37.42273 | 34.85748 | 22679 ft | 438 kts | 327° |
| 2026-04-15 09:46 | 37.44894 | 34.83812 | 23034 ft | 440 kts | 327° |
| 2026-04-15 09:46 | 37.47533 | 34.81862 | 23404 ft | 441 kts | 327° |
| 2026-04-15 09:46 | 37.50198 | 34.79892 | 23740 ft | 443 kts | 327° |
| 2026-04-15 09:46 | 37.52845 | 34.77934 | 24073 ft | 445 kts | 327° |
| 2026-04-15 09:47 | 37.55491 | 34.75975 | 24409 ft | 447 kts | 327° |
| 2026-04-15 09:47 | 37.58176 | 34.73987 | 24715 ft | 449 kts | 327° |
| 2026-04-15 09:47 | 37.60883 | 34.71977 | 25049 ft | 450 kts | 327° |
| 2026-04-15 09:47 | 37.63540 | 34.69975 | 25333 ft | 452 kts | 327° |
| 2026-04-15 09:48 | 37.66261 | 34.67909 | 25657 ft | 453 kts | 327° |
| 2026-04-15 09:48 | 37.68944 | 34.65872 | 25944 ft | 455 kts | 327° |
| 2026-04-15 09:48 | 37.71648 | 34.63820 | 26233 ft | 457 kts | 327° |
| 2026-04-15 09:48 | 37.74364 | 34.61758 | 26535 ft | 458 kts | 327° |
| 2026-04-15 09:49 | 37.77093 | 34.59684 | 26797 ft | 459 kts | 327° |
| 2026-04-15 09:49 | 37.79839 | 34.57595 | 27063 ft | 461 kts | 327° |
| 2026-04-15 09:49 | 37.82554 | 34.55529 | 27331 ft | 462 kts | 327° |
| 2026-04-15 09:49 | 37.85335 | 34.53411 | 27573 ft | 463 kts | 327° |
| 2026-04-15 09:50 | 37.88071 | 34.51325 | 27825 ft | 465 kts | 327° |
| 2026-04-15 09:50 | 37.90826 | 34.49227 | 28048 ft | 466 kts | 327° |
| 2026-04-15 09:50 | 37.93607 | 34.47140 | 28272 ft | 468 kts | 327° |
| 2026-04-15 09:50 | 37.96441 | 34.45027 | 28519 ft | 469 kts | 327° |
| 2026-04-15 09:51 | 37.99235 | 34.42941 | 28760 ft | 469 kts | 327° |
| 2026-04-15 09:51 | 38.02028 | 34.40849 | 29024 ft | 470 kts | 327° |
| 2026-04-15 09:51 | 38.04827 | 34.38751 | 29313 ft | 469 kts | 327° |
| 2026-04-15 09:51 | 38.07642 | 34.36640 | 29603 ft | 469 kts | 327° |
| 2026-04-15 09:52 | 38.10443 | 34.34536 | 29906 ft | 468 kts | 326° |
| 2026-04-15 09:52 | 38.13211 | 34.32455 | 30205 ft | 467 kts | 327° |
| 2026-04-15 09:52 | 38.15992 | 34.30363 | 30502 ft | 466 kts | 326° |
| 2026-04-15 09:52 | 38.18750 | 34.28287 | 30784 ft | 464 kts | 326° |
| 2026-04-15 09:53 | 38.21532 | 34.26189 | 31051 ft | 464 kts | 326° |
| 2026-04-15 09:53 | 38.24285 | 34.24114 | 31315 ft | 463 kts | 326° |
| 2026-04-15 09:53 | 38.27060 | 34.22019 | 31585 ft | 461 kts | 326° |
| 2026-04-15 09:53 | 38.29789 | 34.19957 | 31851 ft | 460 kts | 326° |
| 2026-04-15 09:54 | 38.32525 | 34.17887 | 32076 ft | 460 kts | 326° |
| 2026-04-15 09:54 | 38.35282 | 34.15798 | 32345 ft | 458 kts | 326° |
| 2026-04-15 09:54 | 38.37987 | 34.13748 | 32576 ft | 457 kts | 326° |
| 2026-04-15 09:54 | 38.40716 | 34.11677 | 32816 ft | 456 kts | 326° |
| 2026-04-15 09:55 | 38.43440 | 34.09608 | 33042 ft | 455 kts | 326° |
| 2026-04-15 09:55 | 38.46129 | 34.07566 | 33269 ft | 454 kts | 326° |
| 2026-04-15 09:55 | 38.48857 | 34.05490 | 33479 ft | 454 kts | 326° |
| 2026-04-15 09:55 | 38.51546 | 34.03442 | 33714 ft | 452 kts | 326° |
| 2026-04-15 09:56 | 38.54222 | 34.01397 | 33912 ft | 452 kts | 326° |
| 2026-04-15 09:56 | 38.56884 | 33.99350 | 34134 ft | 450 kts | 326° |
| 2026-04-15 09:56 | 38.62237 | 33.95223 | 34518 ft | 449 kts | 326° |
| 2026-04-15 09:57 | 38.64921 | 33.93153 | 34686 ft | 449 kts | 326° |
| 2026-04-15 09:57 | 38.67563 | 33.91112 | 34881 ft | 448 kts | 326° |
| 2026-04-15 09:57 | 38.70231 | 33.89052 | 35039 ft | 448 kts | 326° |
| 2026-04-15 09:57 | 38.72867 | 33.87015 | 35220 ft | 447 kts | 326° |
| 2026-04-15 09:58 | 38.75534 | 33.84951 | 35373 ft | 447 kts | 326° |
| 2026-04-15 09:58 | 38.78169 | 33.82908 | 35522 ft | 446 kts | 326° |
| 2026-04-15 09:58 | 38.80814 | 33.80857 | 35686 ft | 446 kts | 326° |
| 2026-04-15 09:58 | 38.83472 | 33.78795 | 35821 ft | 446 kts | 326° |
| 2026-04-15 09:59 | 38.86115 | 33.76741 | 35996 ft | 445 kts | 326° |
| 2026-04-15 09:59 | 38.88758 | 33.74686 | 36128 ft | 445 kts | 326° |
| 2026-04-15 09:59 | 38.91402 | 33.72630 | 36232 ft | 446 kts | 326° |
| 2026-04-15 10:00 | 38.96706 | 33.68499 | 36241 ft | 451 kts | 325° |
| 2026-04-15 10:00 | 39.02053 | 33.64336 | 36236 ft | 452 kts | 324° |
| 2026-04-15 10:01 | 39.07402 | 33.60171 | 36231 ft | 446 kts | 324° |
| 2026-04-15 10:01 | 39.12665 | 33.56053 | 36234 ft | 446 kts | 324° |
| 2026-04-15 10:02 | 39.17982 | 33.51884 | 36230 ft | 448 kts | 324° |
| 2026-04-15 10:02 | 39.23303 | 33.47710 | 36223 ft | 449 kts | 324° |
| 2026-04-15 10:03 | 39.28622 | 33.43630 | 36213 ft | 448 kts | 325° |
| 2026-04-15 10:03 | 39.33973 | 33.39519 | 36210 ft | 448 kts | 325° |
| 2026-04-15 10:04 | 39.39298 | 33.35443 | 36209 ft | 449 kts | 327° |
| 2026-04-15 10:04 | 39.44811 | 33.31691 | 36208 ft | 449 kts | 326° |
| 2026-04-15 10:05 | 39.50120 | 33.27457 | 36210 ft | 447 kts | 323° |
| 2026-04-15 10:05 | 39.55366 | 33.23185 | 36210 ft | 447 kts | 323° |
| 2026-04-15 10:06 | 39.60627 | 33.18925 | 36209 ft | 447 kts | 323° |
| 2026-04-15 10:06 | 39.65852 | 33.14687 | 36209 ft | 448 kts | 323° |
| 2026-04-15 10:07 | 39.71127 | 33.10406 | 36207 ft | 447 kts | 323° |
| 2026-04-15 10:07 | 39.76402 | 33.06114 | 36209 ft | 450 kts | 323° |
| 2026-04-15 10:08 | 39.81701 | 33.01795 | 36210 ft | 453 kts | 323° |
| 2026-04-15 10:08 | 39.87054 | 32.97420 | 36182 ft | 457 kts | 323° |
| 2026-04-15 10:09 | 39.92400 | 32.93045 | 36180 ft | 459 kts | 323° |
| 2026-04-15 10:09 | 39.97838 | 32.88585 | 36182 ft | 462 kts | 323° |
| 2026-04-15 10:10 | 40.03228 | 32.84127 | 36181 ft | 461 kts | 320° |
| 2026-04-15 10:10 | 40.08021 | 32.78741 | 36179 ft | 451 kts | 307° |
| 2026-04-15 10:11 | 40.11694 | 32.72223 | 36185 ft | 446 kts | 300° |
| 2026-04-15 10:11 | 40.15230 | 32.65574 | 36182 ft | 447 kts | 301° |
| 2026-04-15 10:12 | 40.18766 | 32.58923 | 36182 ft | 447 kts | 300° |
| 2026-04-15 10:12 | 40.22294 | 32.52261 | 36182 ft | 447 kts | 300° |
| 2026-04-15 10:13 | 40.25820 | 32.45580 | 36182 ft | 447 kts | 300° |
| 2026-04-15 10:13 | 40.29330 | 32.38914 | 36182 ft | 447 kts | 300° |
| 2026-04-15 10:14 | 40.32841 | 32.32229 | 36182 ft | 447 kts | 300° |
| 2026-04-15 10:14 | 40.36337 | 32.25552 | 36182 ft | 446 kts | 300° |
| 2026-04-15 10:15 | 40.39838 | 32.18853 | 36182 ft | 446 kts | 300° |
| 2026-04-15 10:15 | 40.43342 | 32.12130 | 36183 ft | 446 kts | 300° |
| 2026-04-15 10:16 | 40.46829 | 32.05413 | 36190 ft | 446 kts | 300° |
| 2026-04-15 10:16 | 40.50310 | 31.98693 | 36198 ft | 446 kts | 300° |
| 2026-04-15 10:17 | 40.53773 | 31.91994 | 36207 ft | 446 kts | 300° |
| 2026-04-15 10:17 | 40.57154 | 31.85166 | 36207 ft | 443 kts | 294° |
| 2026-04-15 10:18 | 40.59691 | 31.77897 | 36210 ft | 440 kts | 289° |
| 2026-04-15 10:18 | 40.62101 | 31.70463 | 36209 ft | 440 kts | 289° |
| 2026-04-15 10:19 | 40.64467 | 31.63059 | 36209 ft | 439 kts | 289° |
| 2026-04-15 10:19 | 40.66797 | 31.55646 | 36209 ft | 440 kts | 289° |
| 2026-04-15 10:20 | 40.69109 | 31.48213 | 36208 ft | 439 kts | 289° |
| 2026-04-15 10:20 | 40.71391 | 31.40825 | 36208 ft | 439 kts | 288° |
| 2026-04-15 10:21 | 40.73685 | 31.33360 | 36205 ft | 439 kts | 288° |
| 2026-04-15 10:21 | 40.75955 | 31.25932 | 36204 ft | 439 kts | 288° |
| 2026-04-15 10:22 | 40.78240 | 31.18436 | 36205 ft | 439 kts | 288° |
| 2026-04-15 10:22 | 40.80504 | 31.10983 | 36209 ft | 441 kts | 288° |
| 2026-04-15 10:23 | 40.82772 | 31.03491 | 36209 ft | 443 kts | 288° |
| 2026-04-15 10:23 | 40.85066 | 30.95894 | 36209 ft | 445 kts | 288° |
| 2026-04-15 10:24 | 40.87340 | 30.88341 | 36208 ft | 446 kts | 288° |
| 2026-04-15 10:24 | 40.89614 | 30.80767 | 36208 ft | 445 kts | 288° |
| 2026-04-15 10:25 | 40.91894 | 30.73160 | 36209 ft | 445 kts | 288° |
| 2026-04-15 10:25 | 40.94163 | 30.65563 | 36209 ft | 445 kts | 288° |
| 2026-04-15 10:26 | 40.96421 | 30.57986 | 36209 ft | 445 kts | 288° |
| 2026-04-15 10:26 | 40.98679 | 30.50384 | 36208 ft | 445 kts | 288° |
| 2026-04-15 10:27 | 41.00935 | 30.42764 | 36208 ft | 445 kts | 288° |
| 2026-04-15 10:27 | 41.03182 | 30.35156 | 36209 ft | 445 kts | 288° |
| 2026-04-15 10:28 | 41.05416 | 30.27561 | 36209 ft | 445 kts | 287° |
| 2026-04-15 10:28 | 41.07655 | 30.19928 | 36209 ft | 446 kts | 287° |
| 2026-04-15 10:29 | 41.09882 | 30.12313 | 36209 ft | 446 kts | 287° |
| 2026-04-15 10:29 | 41.12130 | 30.04612 | 36209 ft | 446 kts | 287° |
| 2026-04-15 10:30 | 41.14344 | 29.97001 | 36209 ft | 446 kts | 287° |
| 2026-04-15 10:30 | 41.16569 | 29.89336 | 36207 ft | 446 kts | 287° |
| 2026-04-15 10:31 | 41.18783 | 29.81685 | 36202 ft | 446 kts | 287° |
| 2026-04-15 10:31 | 41.20995 | 29.74015 | 36196 ft | 446 kts | 287° |
| 2026-04-15 10:32 | 41.23202 | 29.66342 | 36189 ft | 446 kts | 288° |
| 2026-04-15 10:32 | 41.25417 | 29.58619 | 36184 ft | 446 kts | 287° |
| 2026-04-15 10:33 | 41.27605 | 29.50964 | 36182 ft | 446 kts | 287° |
| 2026-04-15 10:33 | 41.29801 | 29.43261 | 36182 ft | 446 kts | 287° |
| 2026-04-15 10:34 | 41.31996 | 29.35538 | 36182 ft | 446 kts | 287° |
| 2026-04-15 10:34 | 41.34177 | 29.27838 | 36182 ft | 446 kts | 287° |
| 2026-04-15 10:35 | 41.36352 | 29.20130 | 36193 ft | 446 kts | 287° |
| 2026-04-15 10:35 | 41.38521 | 29.12426 | 36210 ft | 446 kts | 287° |
| 2026-04-15 10:36 | 41.40679 | 29.04738 | 36228 ft | 446 kts | 287° |
| 2026-04-15 10:36 | 41.42838 | 28.97023 | 36236 ft | 447 kts | 287° |
| 2026-04-15 10:37 | 41.45015 | 28.89207 | 36236 ft | 450 kts | 287° |
| 2026-04-15 10:37 | 41.47184 | 28.81401 | 36236 ft | 453 kts | 287° |
| 2026-04-15 10:38 | 41.49284 | 28.73498 | 36236 ft | 453 kts | 285° |
| 2026-04-15 10:38 | 41.51280 | 28.65523 | 36235 ft | 452 kts | 285° |
| 2026-04-15 10:39 | 41.53269 | 28.57617 | 36236 ft | 452 kts | 285° |
| 2026-04-15 10:39 | 41.55260 | 28.49683 | 36236 ft | 452 kts | 285° |
| 2026-04-15 10:40 | 41.57255 | 28.41717 | 36236 ft | 452 kts | 285° |
| 2026-04-15 10:40 | 41.59235 | 28.33789 | 36236 ft | 452 kts | 285° |
| 2026-04-15 10:41 | 41.61211 | 28.25843 | 36232 ft | 452 kts | 285° |
| 2026-04-15 10:41 | 41.63184 | 28.17886 | 36224 ft | 452 kts | 285° |
| 2026-04-15 10:42 | 41.65164 | 28.09879 | 36214 ft | 452 kts | 285° |
| 2026-04-15 10:42 | 41.67119 | 28.01948 | 36209 ft | 452 kts | 285° |
| 2026-04-15 10:43 | 41.69074 | 27.93991 | 36209 ft | 452 kts | 285° |
| 2026-04-15 10:43 | 41.71025 | 27.86021 | 36209 ft | 452 kts | 285° |
| 2026-04-15 10:44 | 41.72971 | 27.78046 | 36209 ft | 452 kts | 285° |
| 2026-04-15 10:44 | 41.74913 | 27.70060 | 36209 ft | 452 kts | 285° |
| 2026-04-15 10:45 | 41.76839 | 27.62111 | 36209 ft | 452 kts | 285° |
| 2026-04-15 10:45 | 41.78770 | 27.54117 | 36209 ft | 452 kts | 285° |
| 2026-04-15 10:46 | 41.80703 | 27.46085 | 36209 ft | 452 kts | 285° |
| 2026-04-15 10:46 | 41.82618 | 27.38099 | 36208 ft | 452 kts | 285° |
| 2026-04-15 10:47 | 41.84520 | 27.30138 | 36209 ft | 452 kts | 284° |
| 2026-04-15 10:47 | 41.86425 | 27.22131 | 36209 ft | 452 kts | 284° |
| 2026-04-15 10:48 | 41.88325 | 27.14124 | 36209 ft | 452 kts | 284° |
| 2026-04-15 10:48 | 41.90215 | 27.06126 | 36210 ft | 449 kts | 285° |
| 2026-04-15 10:49 | 41.92081 | 26.98209 | 36207 ft | 443 kts | 285° |
| 2026-04-15 10:49 | 41.93927 | 26.90337 | 36208 ft | 439 kts | 286° |
| 2026-04-15 10:50 | 41.95761 | 26.82563 | 36209 ft | 439 kts | 288° |
| 2026-04-15 10:50 | 41.98124 | 26.75009 | 36207 ft | 442 kts | 298° |
| 2026-04-15 10:51 | 42.01316 | 26.67972 | 36209 ft | 443 kts | 301° |
| 2026-04-15 10:51 | 42.04623 | 26.60962 | 36208 ft | 443 kts | 301° |
| 2026-04-15 10:52 | 42.07918 | 26.53989 | 36201 ft | 443 kts | 301° |
| 2026-04-15 10:52 | 42.11213 | 26.47010 | 36191 ft | 443 kts | 301° |
| 2026-04-15 10:53 | 42.14500 | 26.40041 | 36184 ft | 443 kts | 301° |
| 2026-04-15 10:53 | 42.17803 | 26.33024 | 36182 ft | 443 kts | 300° |
| 2026-04-15 10:54 | 42.21086 | 26.26028 | 36181 ft | 443 kts | 300° |
| 2026-04-15 10:54 | 42.24388 | 26.18979 | 36182 ft | 443 kts | 300° |
| 2026-04-15 10:55 | 42.27662 | 26.11977 | 36182 ft | 443 kts | 300° |
| 2026-04-15 10:55 | 42.30932 | 26.04968 | 36182 ft | 443 kts | 301° |
| 2026-04-15 10:56 | 42.34203 | 25.97941 | 36182 ft | 443 kts | 300° |
| 2026-04-15 10:56 | 42.37474 | 25.90897 | 36182 ft | 443 kts | 300° |
| 2026-04-15 10:57 | 42.40733 | 25.83862 | 36182 ft | 443 kts | 301° |
| 2026-04-15 10:57 | 42.45629 | 25.73265 | 36182 ft | 443 kts | 300° |
| 2026-04-15 10:58 | 42.48873 | 25.66223 | 36182 ft | 443 kts | 301° |
| 2026-04-15 10:58 | 42.52133 | 25.59128 | 36187 ft | 443 kts | 300° |
| 2026-04-15 10:59 | 42.55382 | 25.52042 | 36185 ft | 443 kts | 301° |
| 2026-04-15 10:59 | 42.58625 | 25.44950 | 36182 ft | 443 kts | 300° |
| 2026-04-15 11:00 | 42.61861 | 25.37858 | 36187 ft | 443 kts | 301° |
| 2026-04-15 11:00 | 42.65091 | 25.30761 | 36194 ft | 443 kts | 300° |
| 2026-04-15 11:01 | 42.68321 | 25.23640 | 36194 ft | 443 kts | 300° |
| 2026-04-15 11:01 | 42.71524 | 25.16567 | 36190 ft | 442 kts | 300° |
| 2026-04-15 11:02 | 42.74749 | 25.09427 | 36197 ft | 441 kts | 300° |
| 2026-04-15 11:02 | 42.77939 | 25.02357 | 36206 ft | 441 kts | 300° |
| 2026-04-15 11:03 | 42.81137 | 24.95250 | 36207 ft | 440 kts | 299° |
| 2026-04-15 11:03 | 42.84321 | 24.88160 | 36207 ft | 440 kts | 299° |
| 2026-04-15 11:04 | 42.87515 | 24.81025 | 36212 ft | 441 kts | 299° |
| 2026-04-15 11:04 | 42.90679 | 24.73939 | 36224 ft | 440 kts | 299° |
| 2026-04-15 11:05 | 42.93876 | 24.66763 | 36237 ft | 444 kts | 299° |
| 2026-04-15 11:05 | 42.97089 | 24.59529 | 36236 ft | 448 kts | 299° |
| 2026-04-15 11:06 | 43.00320 | 24.52234 | 36234 ft | 450 kts | 299° |
| 2026-04-15 11:06 | 43.03558 | 24.44905 | 36234 ft | 452 kts | 299° |
| 2026-04-15 11:07 | 43.06798 | 24.37557 | 36215 ft | 453 kts | 299° |
| 2026-04-15 11:07 | 43.10046 | 24.30171 | 36195 ft | 453 kts | 298° |
| 2026-04-15 11:08 | 43.13269 | 24.22822 | 36184 ft | 452 kts | 298° |
| 2026-04-15 11:08 | 43.16485 | 24.15466 | 36182 ft | 453 kts | 298° |
| 2026-04-15 11:09 | 43.19713 | 24.08077 | 36181 ft | 452 kts | 298° |
| 2026-04-15 11:09 | 43.22935 | 24.00676 | 36181 ft | 452 kts | 298° |
| 2026-04-15 11:10 | 43.26152 | 23.93267 | 36183 ft | 452 kts | 298° |
| 2026-04-15 11:10 | 43.29343 | 23.85902 | 36182 ft | 452 kts | 298° |
| 2026-04-15 11:11 | 43.32541 | 23.78503 | 36180 ft | 451 kts | 298° |
| 2026-04-15 11:11 | 43.35735 | 23.71102 | 36183 ft | 453 kts | 298° |
| 2026-04-15 11:12 | 43.38950 | 23.63624 | 36184 ft | 453 kts | 298° |
| 2026-04-15 11:12 | 43.42132 | 23.56203 | 36183 ft | 451 kts | 298° |
| 2026-04-15 11:13 | 43.45293 | 23.48815 | 36182 ft | 450 kts | 298° |
| 2026-04-15 11:13 | 43.48462 | 23.41389 | 36183 ft | 452 kts | 298° |
| 2026-04-15 11:14 | 43.51659 | 23.33876 | 36182 ft | 452 kts | 298° |
| 2026-04-15 11:14 | 43.54809 | 23.26451 | 36184 ft | 450 kts | 298° |
| 2026-04-15 11:15 | 43.57975 | 23.18972 | 36188 ft | 451 kts | 298° |
| 2026-04-15 11:15 | 43.61122 | 23.11523 | 36187 ft | 452 kts | 298° |
| 2026-04-15 11:16 | 43.64269 | 23.04044 | 36185 ft | 453 kts | 298° |
| 2026-04-15 11:16 | 43.67412 | 22.96563 | 36169 ft | 449 kts | 298° |
| 2026-04-15 11:17 | 43.70518 | 22.89153 | 36155 ft | 443 kts | 299° |
| 2026-04-15 11:17 | 43.73579 | 22.81821 | 36141 ft | 443 kts | 300° |
| 2026-04-15 11:18 | 43.76653 | 22.74442 | 36128 ft | 444 kts | 300° |
| 2026-04-15 11:18 | 43.79717 | 22.67073 | 36127 ft | 444 kts | 300° |
| 2026-04-15 11:19 | 43.82788 | 22.59668 | 36129 ft | 445 kts | 300° |
| 2026-04-15 11:19 | 43.85848 | 22.52274 | 36126 ft | 443 kts | 300° |
| 2026-04-15 11:20 | 43.88889 | 22.44904 | 36128 ft | 443 kts | 300° |
| 2026-04-15 11:20 | 43.92328 | 22.37875 | 36127 ft | 444 kts | 309° |
| 2026-04-15 11:21 | 43.96281 | 22.31276 | 36129 ft | 446 kts | 309° |
| 2026-04-15 11:21 | 44.00267 | 22.24710 | 36128 ft | 445 kts | 309° |
| 2026-04-15 11:22 | 44.04258 | 22.18169 | 36128 ft | 444 kts | 309° |
| 2026-04-15 11:22 | 44.08223 | 22.11685 | 36128 ft | 443 kts | 310° |
| 2026-04-15 11:23 | 44.12221 | 22.05141 | 36129 ft | 445 kts | 309° |
| 2026-04-15 11:23 | 44.16210 | 21.98606 | 36127 ft | 444 kts | 310° |
| 2026-04-15 11:24 | 44.20195 | 21.92065 | 36129 ft | 444 kts | 310° |
| 2026-04-15 11:24 | 44.24160 | 21.85548 | 36129 ft | 444 kts | 310° |
| 2026-04-15 11:25 | 44.28145 | 21.78983 | 36131 ft | 445 kts | 310° |
| 2026-04-15 11:25 | 44.32128 | 21.72405 | 36137 ft | 444 kts | 310° |
| 2026-04-15 11:26 | 44.36093 | 21.65843 | 36147 ft | 443 kts | 309° |
| 2026-04-15 11:26 | 44.40070 | 21.59246 | 36155 ft | 444 kts | 310° |
| 2026-04-15 11:27 | 44.44039 | 21.52645 | 36155 ft | 446 kts | 310° |
| 2026-04-15 11:27 | 44.48005 | 21.46043 | 36154 ft | 445 kts | 310° |
| 2026-04-15 11:28 | 44.51963 | 21.39431 | 36153 ft | 443 kts | 310° |
| 2026-04-15 11:28 | 44.55913 | 21.32820 | 36155 ft | 443 kts | 309° |
| 2026-04-15 11:29 | 44.59849 | 21.26209 | 36157 ft | 445 kts | 309° |
| 2026-04-15 11:29 | 44.63784 | 21.19586 | 36154 ft | 445 kts | 309° |
| 2026-04-15 11:30 | 44.67745 | 21.12907 | 36154 ft | 444 kts | 309° |
| 2026-04-15 11:30 | 44.71653 | 21.06297 | 36158 ft | 441 kts | 309° |
| 2026-04-15 11:31 | 44.75535 | 20.99711 | 36157 ft | 433 kts | 310° |
| 2026-04-15 11:31 | 44.79327 | 20.93260 | 36157 ft | 428 kts | 311° |
| 2026-04-15 11:32 | 44.83111 | 20.86796 | 36155 ft | 427 kts | 312° |
| 2026-04-15 11:32 | 44.86876 | 20.80358 | 36162 ft | 427 kts | 312° |
| 2026-04-15 11:33 | 44.90640 | 20.73915 | 36168 ft | 428 kts | 312° |
| 2026-04-15 11:33 | 44.94409 | 20.67455 | 36175 ft | 428 kts | 312° |
| 2026-04-15 11:34 | 44.98156 | 20.61019 | 36181 ft | 427 kts | 312° |
| 2026-04-15 11:34 | 45.01917 | 20.54547 | 36182 ft | 426 kts | 312° |
| 2026-04-15 11:35 | 45.05666 | 20.48082 | 36181 ft | 425 kts | 312° |
| 2026-04-15 11:35 | 45.09390 | 20.41644 | 36182 ft | 424 kts | 312° |
| 2026-04-15 11:36 | 45.13107 | 20.35206 | 36182 ft | 424 kts | 312° |
| 2026-04-15 11:36 | 45.16811 | 20.28766 | 36182 ft | 424 kts | 311° |
| 2026-04-15 11:37 | 45.20525 | 20.22294 | 36182 ft | 424 kts | 311° |
| 2026-04-15 11:37 | 45.24235 | 20.15820 | 36182 ft | 424 kts | 311° |
| 2026-04-15 11:38 | 45.27942 | 20.09337 | 36182 ft | 424 kts | 311° |
| 2026-04-15 11:38 | 45.31632 | 20.02870 | 36182 ft | 424 kts | 311° |
| 2026-04-15 11:39 | 45.35331 | 19.96375 | 36182 ft | 424 kts | 311° |
| 2026-04-15 11:39 | 45.39022 | 19.89878 | 36182 ft | 424 kts | 311° |
| 2026-04-15 11:40 | 45.42723 | 19.83348 | 36182 ft | 424 kts | 311° |
| 2026-04-15 11:40 | 45.46399 | 19.76848 | 36182 ft | 424 kts | 311° |
| 2026-04-15 11:41 | 45.50089 | 19.70309 | 36182 ft | 424 kts | 311° |
| 2026-04-15 11:41 | 45.53746 | 19.63812 | 36182 ft | 424 kts | 311° |
| 2026-04-15 11:42 | 45.57424 | 19.57263 | 36182 ft | 424 kts | 311° |
| 2026-04-15 11:42 | 45.61108 | 19.50688 | 36182 ft | 424 kts | 311° |
| 2026-04-15 11:43 | 45.64754 | 19.44167 | 36182 ft | 424 kts | 311° |
| 2026-04-15 11:43 | 45.68433 | 19.37571 | 36182 ft | 424 kts | 311° |
| 2026-04-15 11:44 | 45.72099 | 19.30977 | 36182 ft | 424 kts | 311° |
| 2026-04-15 11:44 | 45.75740 | 19.24407 | 36182 ft | 424 kts | 311° |
| 2026-04-15 11:45 | 45.79389 | 19.17811 | 36183 ft | 423 kts | 311° |
| 2026-04-15 11:45 | 45.82989 | 19.11273 | 36181 ft | 414 kts | 311° |
| 2026-04-15 11:46 | 45.86508 | 19.04847 | 36181 ft | 404 kts | 312° |
| 2026-04-15 11:46 | 45.89930 | 18.98575 | 36182 ft | 396 kts | 313° |
| 2026-04-15 11:47 | 45.93289 | 18.92407 | 36181 ft | 391 kts | 314° |
| 2026-04-15 11:47 | 45.96729 | 18.86398 | 36185 ft | 392 kts | 315° |
| 2026-04-15 11:48 | 46.00201 | 18.80356 | 36189 ft | 393 kts | 315° |
| 2026-04-15 11:48 | 46.03658 | 18.74324 | 36196 ft | 393 kts | 315° |
| 2026-04-15 11:49 | 46.07117 | 18.68273 | 36205 ft | 392 kts | 315° |
| 2026-04-15 11:49 | 46.10576 | 18.62213 | 36210 ft | 393 kts | 315° |
| 2026-04-15 11:50 | 46.14053 | 18.56105 | 36209 ft | 393 kts | 315° |
| 2026-04-15 11:50 | 46.17494 | 18.50046 | 36209 ft | 393 kts | 315° |
| 2026-04-15 11:51 | 46.20940 | 18.43966 | 36209 ft | 392 kts | 315° |
| 2026-04-15 11:51 | 46.24389 | 18.37868 | 36209 ft | 392 kts | 315° |
| 2026-04-15 11:52 | 46.27817 | 18.31789 | 36209 ft | 393 kts | 314° |
| 2026-04-15 11:52 | 46.31271 | 18.25634 | 36209 ft | 393 kts | 314° |
| 2026-04-15 11:53 | 46.34705 | 18.19514 | 36209 ft | 393 kts | 314° |
| 2026-04-15 11:53 | 46.38131 | 18.13397 | 36191 ft | 394 kts | 314° |
| 2026-04-15 11:54 | 46.41565 | 18.07255 | 36182 ft | 393 kts | 314° |
| 2026-04-15 11:54 | 46.45012 | 18.01079 | 36182 ft | 393 kts | 314° |
| 2026-04-15 11:55 | 46.48432 | 17.94936 | 36183 ft | 393 kts | 314° |
| 2026-04-15 11:55 | 46.51839 | 17.88803 | 36189 ft | 393 kts | 314° |
| 2026-04-15 11:56 | 46.55255 | 17.82644 | 36196 ft | 393 kts | 314° |
| 2026-04-15 11:56 | 46.58692 | 17.76433 | 36206 ft | 393 kts | 314° |
| 2026-04-15 11:57 | 46.63804 | 17.67165 | 36209 ft | 393 kts | 314° |
| 2026-04-15 11:58 | 46.67234 | 17.60933 | 36209 ft | 393 kts | 314° |
| 2026-04-15 11:58 | 46.70638 | 17.54732 | 36209 ft | 393 kts | 314° |
| 2026-04-15 11:59 | 46.74042 | 17.48517 | 36209 ft | 393 kts | 314° |
| 2026-04-15 11:59 | 46.77448 | 17.42283 | 36209 ft | 393 kts | 314° |
| 2026-04-15 12:00 | 46.80823 | 17.36093 | 36209 ft | 393 kts | 314° |
| 2026-04-15 12:00 | 46.84242 | 17.29794 | 36209 ft | 394 kts | 313° |
| 2026-04-15 12:01 | 46.87625 | 17.23544 | 36209 ft | 394 kts | 313° |
| 2026-04-15 12:01 | 46.91018 | 17.17275 | 36209 ft | 394 kts | 313° |
| 2026-04-15 12:02 | 46.94408 | 17.11008 | 36209 ft | 394 kts | 313° |
| 2026-04-15 12:02 | 46.96120 | 17.07841 | 36351 ft | 394 kts | 313° |
| 2026-04-15 12:02 | 46.97801 | 17.04728 | 36462 ft | 396 kts | 313° |
| 2026-04-15 12:02 | 46.99499 | 17.01580 | 36650 ft | 394 kts | 313° |
| 2026-04-15 12:03 | 47.01192 | 16.98429 | 36932 ft | 391 kts | 313° |
| 2026-04-15 12:03 | 47.02855 | 16.95331 | 37180 ft | 388 kts | 313° |
| 2026-04-15 12:03 | 47.04517 | 16.92226 | 37474 ft | 384 kts | 313° |
| 2026-04-15 12:03 | 47.06144 | 16.89180 | 37738 ft | 380 kts | 313° |
| 2026-04-15 12:04 | 47.07760 | 16.86150 | 37995 ft | 377 kts | 313° |
| 2026-04-15 12:04 | 47.09364 | 16.83138 | 38195 ft | 374 kts | 313° |
| 2026-04-15 12:04 | 47.10973 | 16.80112 | 38214 ft | 372 kts | 313° |
| 2026-04-15 12:05 | 47.14090 | 16.74237 | 38190 ft | 363 kts | 313° |
| 2026-04-15 12:05 | 47.17195 | 16.68397 | 38148 ft | 362 kts | 313° |
| 2026-04-15 12:06 | 47.20297 | 16.62555 | 38083 ft | 364 kts | 313° |
| 2026-04-15 12:06 | 47.23415 | 16.56666 | 38024 ft | 364 kts | 313° |
| 2026-04-15 12:07 | 47.26500 | 16.50828 | 38000 ft | 363 kts | 313° |
| 2026-04-15 12:07 | 47.29630 | 16.44990 | 38000 ft | 362 kts | 315° |
| 2026-04-15 12:08 | 47.32865 | 16.39286 | 38000 ft | 363 kts | 315° |
| 2026-04-15 12:08 | 47.36064 | 16.33581 | 38000 ft | 363 kts | 314° |
| 2026-04-15 12:08 | 47.37664 | 16.30707 | 38112 ft | 361 kts | 314° |
| 2026-04-15 12:09 | 47.39252 | 16.27849 | 38239 ft | 361 kts | 314° |
| 2026-04-15 12:09 | 47.42474 | 16.22066 | 38231 ft | 365 kts | 314° |
| 2026-04-15 12:10 | 47.45686 | 16.16287 | 38228 ft | 365 kts | 314° |
| 2026-04-15 12:10 | 47.48881 | 16.10535 | 38229 ft | 363 kts | 314° |
| 2026-04-15 12:11 | 47.52076 | 16.04770 | 38233 ft | 363 kts | 314° |
| 2026-04-15 12:11 | 47.55259 | 15.99015 | 38228 ft | 364 kts | 314° |
| 2026-04-15 12:12 | 47.58453 | 15.93228 | 38222 ft | 364 kts | 314° |
| 2026-04-15 12:12 | 47.61663 | 15.87400 | 38215 ft | 364 kts | 314° |
| 2026-04-15 12:13 | 47.64846 | 15.81610 | 38209 ft | 363 kts | 314° |
| 2026-04-15 12:13 | 47.68023 | 15.75816 | 38209 ft | 363 kts | 314° |
| 2026-04-15 12:14 | 47.71203 | 15.70005 | 38211 ft | 363 kts | 314° |
| 2026-04-15 12:14 | 47.74386 | 15.64178 | 38211 ft | 364 kts | 314° |
| 2026-04-15 12:15 | 47.77563 | 15.58351 | 38209 ft | 363 kts | 314° |
| 2026-04-15 12:15 | 47.80734 | 15.52518 | 38209 ft | 363 kts | 314° |
| 2026-04-15 12:16 | 47.83905 | 15.46674 | 38209 ft | 363 kts | 314° |
| 2026-04-15 12:16 | 47.87065 | 15.40838 | 38210 ft | 364 kts | 314° |
| 2026-04-15 12:17 | 47.90229 | 15.34984 | 38209 ft | 363 kts | 313° |
| 2026-04-15 12:17 | 47.93375 | 15.29120 | 38209 ft | 364 kts | 314° |
| 2026-04-15 12:18 | 47.96547 | 15.23205 | 38209 ft | 364 kts | 314° |
| 2026-04-15 12:18 | 47.99698 | 15.17324 | 38209 ft | 364 kts | 314° |
| 2026-04-15 12:19 | 48.02843 | 15.11449 | 38209 ft | 364 kts | 314° |
| 2026-04-15 12:19 | 48.06006 | 15.05540 | 38209 ft | 365 kts | 313° |
| 2026-04-15 12:20 | 48.09175 | 14.99628 | 38209 ft | 369 kts | 313° |
| 2026-04-15 12:20 | 48.12402 | 14.93599 | 38210 ft | 374 kts | 312° |
| 2026-04-15 12:21 | 48.15650 | 14.87516 | 38209 ft | 377 kts | 311° |
| 2026-04-15 12:21 | 48.18913 | 14.81381 | 38209 ft | 377 kts | 311° |
| 2026-04-15 12:22 | 48.22155 | 14.75261 | 38208 ft | 376 kts | 311° |
| 2026-04-15 12:22 | 48.25389 | 14.69132 | 38209 ft | 375 kts | 311° |
| 2026-04-15 12:23 | 48.28615 | 14.63006 | 38209 ft | 375 kts | 311° |
| 2026-04-15 12:23 | 48.31842 | 14.56859 | 38209 ft | 376 kts | 311° |
| 2026-04-15 12:24 | 48.35062 | 14.50709 | 38209 ft | 376 kts | 311° |
| 2026-04-15 12:24 | 48.38290 | 14.44530 | 38209 ft | 376 kts | 311° |
| 2026-04-15 12:25 | 48.41503 | 14.38365 | 38209 ft | 376 kts | 311° |
| 2026-04-15 12:25 | 48.44719 | 14.32177 | 38209 ft | 376 kts | 311° |
| 2026-04-15 12:26 | 48.47927 | 14.25964 | 38209 ft | 376 kts | 311° |
| 2026-04-15 12:26 | 48.51138 | 14.19748 | 38209 ft | 376 kts | 311° |
| 2026-04-15 12:27 | 48.54338 | 14.13550 | 38209 ft | 376 kts | 311° |
| 2026-04-15 12:27 | 48.57521 | 14.07373 | 38209 ft | 376 kts | 311° |
| 2026-04-15 12:28 | 48.60741 | 14.01110 | 38209 ft | 376 kts | 311° |
| 2026-04-15 12:28 | 48.63931 | 13.94892 | 38209 ft | 376 kts | 311° |
| 2026-04-15 12:29 | 48.67106 | 13.88690 | 38209 ft | 376 kts | 311° |
| 2026-04-15 12:29 | 48.70293 | 13.82449 | 38209 ft | 376 kts | 311° |
| 2026-04-15 12:30 | 48.73483 | 13.76190 | 38209 ft | 376 kts | 311° |
| 2026-04-15 12:30 | 48.76651 | 13.69927 | 38209 ft | 376 kts | 310° |
| 2026-04-15 12:31 | 48.79670 | 13.63407 | 38213 ft | 377 kts | 309° |
| 2026-04-15 12:31 | 48.82663 | 13.56918 | 38231 ft | 377 kts | 309° |
| 2026-04-15 12:32 | 48.85665 | 13.50417 | 38248 ft | 377 kts | 309° |
| 2026-04-15 12:32 | 48.88667 | 13.43908 | 38260 ft | 377 kts | 309° |
| 2026-04-15 12:33 | 48.91664 | 13.37392 | 38262 ft | 377 kts | 309° |
| 2026-04-15 12:33 | 48.94649 | 13.30876 | 38264 ft | 378 kts | 308° |
| 2026-04-15 12:34 | 48.97644 | 13.24311 | 38263 ft | 377 kts | 308° |
| 2026-04-15 12:34 | 49.00619 | 13.17795 | 38263 ft | 375 kts | 308° |
| 2026-04-15 12:35 | 49.03596 | 13.11298 | 38263 ft | 373 kts | 307° |
| 2026-04-15 12:35 | 49.06559 | 13.04838 | 38263 ft | 373 kts | 306° |
| 2026-04-15 12:36 | 49.09541 | 12.98335 | 38263 ft | 372 kts | 305° |
| 2026-04-15 12:36 | 49.12499 | 12.91874 | 38263 ft | 372 kts | 304° |
| 2026-04-15 12:37 | 49.15449 | 12.85385 | 38263 ft | 372 kts | 304° |
| 2026-04-15 12:37 | 49.18373 | 12.78915 | 38263 ft | 372 kts | 304° |
| 2026-04-15 12:38 | 49.21302 | 12.72410 | 38263 ft | 372 kts | 304° |
| 2026-04-15 12:38 | 49.24232 | 12.65877 | 38255 ft | 372 kts | 304° |
| 2026-04-15 12:39 | 49.27132 | 12.59394 | 38241 ft | 372 kts | 304° |
| 2026-04-15 12:39 | 49.30050 | 12.52851 | 38226 ft | 372 kts | 304° |
| 2026-04-15 12:40 | 49.32970 | 12.46289 | 38212 ft | 372 kts | 304° |
| 2026-04-15 12:40 | 49.35870 | 12.39760 | 38210 ft | 372 kts | 304° |
| 2026-04-15 12:41 | 49.38770 | 12.33208 | 38211 ft | 372 kts | 303° |
| 2026-04-15 12:41 | 49.41673 | 12.26597 | 38210 ft | 372 kts | 303° |
| 2026-04-15 12:42 | 49.44552 | 12.20047 | 38210 ft | 372 kts | 303° |
| 2026-04-15 12:42 | 49.47426 | 12.13499 | 38210 ft | 372 kts | 303° |
| 2026-04-15 12:43 | 49.50317 | 12.06903 | 38210 ft | 372 kts | 303° |
| 2026-04-15 12:43 | 49.53205 | 12.00299 | 38210 ft | 372 kts | 303° |
| 2026-04-15 12:44 | 49.56075 | 11.93720 | 38210 ft | 372 kts | 303° |
| 2026-04-15 12:44 | 49.58950 | 11.87116 | 38210 ft | 372 kts | 303° |
| 2026-04-15 12:45 | 49.61829 | 11.80487 | 38210 ft | 372 kts | 303° |
| 2026-04-15 12:45 | 49.64696 | 11.73868 | 38210 ft | 372 kts | 303° |
| 2026-04-15 12:46 | 49.67553 | 11.67254 | 38210 ft | 372 kts | 303° |
| 2026-04-15 12:46 | 49.70416 | 11.60610 | 38210 ft | 372 kts | 303° |
| 2026-04-15 12:47 | 49.73270 | 11.53972 | 38210 ft | 372 kts | 303° |
| 2026-04-15 12:47 | 49.76136 | 11.47287 | 38212 ft | 372 kts | 303° |
| 2026-04-15 12:48 | 49.78969 | 11.40666 | 38219 ft | 372 kts | 303° |
| 2026-04-15 12:48 | 49.81818 | 11.33988 | 38227 ft | 372 kts | 303° |
| 2026-04-15 12:49 | 49.84642 | 11.27315 | 38234 ft | 372 kts | 303° |
| 2026-04-15 12:49 | 49.87471 | 11.20630 | 38236 ft | 372 kts | 303° |
| 2026-04-15 12:50 | 49.90323 | 11.13887 | 38236 ft | 372 kts | 303° |
| 2026-04-15 12:50 | 49.93153 | 11.07183 | 38236 ft | 372 kts | 303° |
| 2026-04-15 12:51 | 49.95967 | 11.00505 | 38236 ft | 372 kts | 303° |
| 2026-04-15 12:51 | 49.98792 | 10.93807 | 38236 ft | 372 kts | 302° |
| 2026-04-15 12:52 | 50.01635 | 10.87063 | 38236 ft | 372 kts | 301° |
| 2026-04-15 12:52 | 50.04462 | 10.80349 | 38236 ft | 373 kts | 301° |
| 2026-04-15 12:53 | 50.07295 | 10.73593 | 38233 ft | 374 kts | 301° |
| 2026-04-15 12:53 | 50.10028 | 10.66789 | 38228 ft | 373 kts | 300° |
| 2026-04-15 12:54 | 50.12754 | 10.59889 | 38224 ft | 374 kts | 300° |
| 2026-04-15 12:54 | 50.15480 | 10.52989 | 38219 ft | 373 kts | 300° |
| 2026-04-15 12:55 | 50.18190 | 10.46112 | 38219 ft | 373 kts | 300° |
| 2026-04-15 12:55 | 50.20892 | 10.39241 | 38219 ft | 373 kts | 300° |
| 2026-04-15 12:56 | 50.23603 | 10.32318 | 38220 ft | 373 kts | 299° |
| 2026-04-15 12:56 | 50.26279 | 10.25431 | 38220 ft | 373 kts | 299° |
| 2026-04-15 12:57 | 50.28968 | 10.18521 | 38221 ft | 373 kts | 299° |
| 2026-04-15 12:57 | 50.31662 | 10.11586 | 38221 ft | 373 kts | 299° |
| 2026-04-15 12:58 | 50.34339 | 10.04688 | 38220 ft | 373 kts | 299° |
| 2026-04-15 12:58 | 50.37030 | 9.97728 | 38222 ft | 373 kts | 299° |
| 2026-04-15 12:59 | 50.41046 | 9.87316 | 38232 ft | 373 kts | 299° |
| 2026-04-15 12:59 | 50.43719 | 9.80364 | 38236 ft | 373 kts | 299° |
| 2026-04-15 13:00 | 50.46388 | 9.73399 | 38236 ft | 373 kts | 299° |
| 2026-04-15 13:00 | 50.49040 | 9.66464 | 38236 ft | 373 kts | 299° |
| 2026-04-15 13:01 | 50.51702 | 9.59485 | 38236 ft | 373 kts | 299° |
| 2026-04-15 13:01 | 50.54707 | 9.52826 | 38237 ft | 376 kts | 306° |
| 2026-04-15 13:02 | 50.58020 | 9.46458 | 38236 ft | 375 kts | 306° |
| 2026-04-15 13:02 | 50.61264 | 9.40136 | 38223 ft | 364 kts | 306° |
| 2026-04-15 13:03 | 50.62818 | 9.37110 | 37903 ft | 355 kts | 306° |
| 2026-04-15 13:03 | 50.64366 | 9.34084 | 37413 ft | 350 kts | 305° |
| 2026-04-15 13:03 | 50.65873 | 9.31118 | 36891 ft | 346 kts | 304° |
| 2026-04-15 13:03 | 50.67350 | 9.28203 | 36370 ft | 346 kts | 305° |
| 2026-04-15 13:04 | 50.68862 | 9.25218 | 35803 ft | 352 kts | 305° |
| 2026-04-15 13:04 | 50.70375 | 9.22237 | 35215 ft | 350 kts | 305° |
| 2026-04-15 13:04 | 50.71907 | 9.19223 | 34599 ft | 349 kts | 305° |
| 2026-04-15 13:04 | 50.73424 | 9.16231 | 33984 ft | 353 kts | 305° |
| 2026-04-15 13:05 | 50.74952 | 9.13216 | 33465 ft | 352 kts | 305° |
| 2026-04-15 13:05 | 50.76453 | 9.10260 | 33017 ft | 345 kts | 304° |
| 2026-04-15 13:05 | 50.77947 | 9.07317 | 32567 ft | 347 kts | 304° |
| 2026-04-15 13:05 | 50.79465 | 9.04314 | 32103 ft | 354 kts | 304° |
| 2026-04-15 13:06 | 50.80992 | 9.01302 | 31626 ft | 347 kts | 304° |
| 2026-04-15 13:06 | 50.82494 | 8.98337 | 31166 ft | 343 kts | 303° |
| 2026-04-15 13:06 | 50.83998 | 8.95351 | 30706 ft | 351 kts | 303° |
| 2026-04-15 13:06 | 50.85500 | 8.92363 | 30231 ft | 348 kts | 303° |
| 2026-04-15 13:07 | 50.86999 | 8.89387 | 29761 ft | 342 kts | 303° |
| 2026-04-15 13:07 | 50.88468 | 8.86457 | 29304 ft | 345 kts | 303° |
| 2026-04-15 13:07 | 50.89973 | 8.83445 | 28821 ft | 347 kts | 303° |
| 2026-04-15 13:07 | 50.91459 | 8.80483 | 28345 ft | 341 kts | 302° |
| 2026-04-15 13:08 | 50.92902 | 8.77603 | 27880 ft | 335 kts | 302° |
| 2026-04-15 13:08 | 50.94344 | 8.74714 | 27419 ft | 338 kts | 302° |
| 2026-04-15 13:08 | 50.95809 | 8.71769 | 26941 ft | 338 kts | 302° |
| 2026-04-15 13:08 | 50.97259 | 8.68866 | 26467 ft | 333 kts | 302° |
| 2026-04-15 13:09 | 50.98671 | 8.66032 | 26006 ft | 328 kts | 301° |
| 2026-04-15 13:09 | 51.00097 | 8.63157 | 25548 ft | 332 kts | 301° |
| 2026-04-15 13:09 | 51.01510 | 8.60296 | 25072 ft | 331 kts | 300° |
| 2026-04-15 13:09 | 51.02778 | 8.57311 | 24544 ft | 323 kts | 295° |
| 2026-04-15 13:10 | 51.03911 | 8.54303 | 24082 ft | 318 kts | 295° |
| 2026-04-15 13:10 | 51.05058 | 8.51310 | 23639 ft | 319 kts | 295° |
| 2026-04-15 13:10 | 51.06215 | 8.48296 | 23190 ft | 322 kts | 295° |
| 2026-04-15 13:10 | 51.07367 | 8.45304 | 22741 ft | 316 kts | 295° |
| 2026-04-15 13:11 | 51.08512 | 8.42328 | 22300 ft | 314 kts | 295° |
| 2026-04-15 13:11 | 51.09645 | 8.39364 | 21862 ft | 320 kts | 295° |
| 2026-04-15 13:11 | 51.10799 | 8.36355 | 21407 ft | 315 kts | 296° |
| 2026-04-15 13:11 | 51.11929 | 8.33410 | 20967 ft | 310 kts | 295° |
| 2026-04-15 13:12 | 51.13038 | 8.30494 | 20536 ft | 315 kts | 295° |
| 2026-04-15 13:12 | 51.14171 | 8.27514 | 20083 ft | 313 kts | 295° |
| 2026-04-15 13:12 | 51.15305 | 8.24546 | 19636 ft | 310 kts | 295° |
| 2026-04-15 13:12 | 51.16409 | 8.21648 | 19200 ft | 309 kts | 295° |
| 2026-04-15 13:13 | 51.17510 | 8.18741 | 18803 ft | 306 kts | 295° |
| 2026-04-15 13:13 | 51.18611 | 8.15827 | 18374 ft | 305 kts | 295° |
| 2026-04-15 13:13 | 51.19711 | 8.12921 | 17935 ft | 305 kts | 295° |
| 2026-04-15 13:13 | 51.20796 | 8.10058 | 17499 ft | 304 kts | 295° |
| 2026-04-15 13:14 | 51.21893 | 8.07161 | 17056 ft | 305 kts | 296° |
| 2026-04-15 13:14 | 51.22977 | 8.04297 | 16617 ft | 306 kts | 296° |
| 2026-04-15 13:14 | 51.24088 | 8.01362 | 16168 ft | 308 kts | 296° |
| 2026-04-15 13:14 | 51.25189 | 7.98449 | 15720 ft | 309 kts | 296° |
| 2026-04-15 13:15 | 51.26298 | 7.95513 | 15268 ft | 310 kts | 296° |
| 2026-04-15 13:15 | 51.27413 | 7.92558 | 14812 ft | 310 kts | 296° |
| 2026-04-15 13:15 | 51.28512 | 7.89643 | 14363 ft | 311 kts | 296° |
| 2026-04-15 13:15 | 51.29631 | 7.86669 | 13906 ft | 310 kts | 297° |
| 2026-04-15 13:16 | 51.30735 | 7.83734 | 13454 ft | 310 kts | 297° |
| 2026-04-15 13:16 | 51.31844 | 7.80784 | 13000 ft | 309 kts | 297° |
| 2026-04-15 13:16 | 51.32936 | 7.77874 | 12551 ft | 309 kts | 297° |
| 2026-04-15 13:16 | 51.34036 | 7.74939 | 12099 ft | 309 kts | 297° |
| 2026-04-15 13:17 | 51.35056 | 7.71929 | 11713 ft | 303 kts | 287° |
| 2026-04-15 13:17 | 51.35323 | 7.68687 | 11384 ft | 291 kts | 263° |
| 2026-04-15 13:17 | 51.35013 | 7.65601 | 11205 ft | 279 kts | 259° |
| 2026-04-15 13:17 | 51.34757 | 7.62535 | 10908 ft | 273 kts | 263° |
| 2026-04-15 13:18 | 51.34594 | 7.59581 | 10777 ft | 261 kts | 264° |
| 2026-04-15 13:18 | 51.34452 | 7.56715 | 10409 ft | 259 kts | 264° |
| 2026-04-15 13:18 | 51.34325 | 7.53868 | 10055 ft | 257 kts | 264° |
| 2026-04-15 13:18 | 51.34204 | 7.51031 | 9649 ft | 257 kts | 264° |
| 2026-04-15 13:19 | 51.34081 | 7.48171 | 9295 ft | 255 kts | 265° |
| 2026-04-15 13:19 | 51.33962 | 7.45356 | 8863 ft | 256 kts | 265° |
| 2026-04-15 13:19 | 51.33843 | 7.42523 | 8555 ft | 252 kts | 264° |
| 2026-04-15 13:19 | 51.33730 | 7.39753 | 8123 ft | 254 kts | 265° |
| 2026-04-15 13:20 | 51.33615 | 7.36930 | 7718 ft | 254 kts | 264° |
| 2026-04-15 13:20 | 51.33489 | 7.34110 | 7398 ft | 251 kts | 263° |
| 2026-04-15 13:20 | 51.33364 | 7.31376 | 7058 ft | 249 kts | 264° |
| 2026-04-15 13:20 | 51.33256 | 7.28599 | 6610 ft | 251 kts | 264° |
| 2026-04-15 13:21 | 51.33136 | 7.25818 | 6327 ft | 247 kts | 263° |
| 2026-04-15 13:21 | 51.33044 | 7.23073 | 5829 ft | 253 kts | 263° |
| 2026-04-15 13:21 | 51.32921 | 7.20305 | 5647 ft | 244 kts | 263° |
| 2026-04-15 13:21 | 51.32913 | 7.17550 | 5099 ft | 254 kts | 277° |
| 2026-04-15 13:22 | 51.33485 | 7.14862 | 4725 ft | 258 kts | 291° |
| 2026-04-15 13:22 | 51.34203 | 7.12284 | 4355 ft | 257 kts | 291° |
| 2026-04-15 13:22 | 51.34914 | 7.09675 | 4168 ft | 248 kts | 290° |
| 2026-04-15 13:22 | 51.35588 | 7.07204 | 4001 ft | 240 kts | 290° |
| 2026-04-15 13:23 | 51.36233 | 7.04802 | 3791 ft | 235 kts | 290° |
| 2026-04-15 13:23 | 51.36866 | 7.02417 | 3550 ft | 231 kts | 290° |
| 2026-04-15 13:23 | 51.37465 | 7.00046 | 3279 ft | 228 kts | 286° |
| 2026-04-15 13:23 | 51.37848 | 6.97629 | 3081 ft | 219 kts | 275° |
| 2026-04-15 13:24 | 51.37761 | 6.95291 | 2875 ft | 205 kts | 248° |
| 2026-04-15 13:24 | 51.37003 | 6.93538 | 2705 ft | 187 kts | 221° |
| 2026-04-15 13:24 | 51.36090 | 6.92118 | 2397 ft | 182 kts | 225° |
| 2026-04-15 13:24 | 51.35273 | 6.90627 | 2074 ft | 168 kts | 229° |
| 2026-04-15 13:25 | 51.34615 | 6.89203 | 1813 ft | 156 kts | 234° |
| 2026-04-15 13:25 | 51.33998 | 6.87804 | 1640 ft | 154 kts | 234° |
| 2026-04-15 13:25 | 51.33384 | 6.86431 | 1520 ft | 151 kts | 231° |
| 2026-04-15 13:25 | 51.32754 | 6.85117 | 1336 ft | 146 kts | 231° |
| 2026-04-15 13:26 | 51.32134 | 6.83872 | 1057 ft | 143 kts | 229° |
| 2026-04-15 13:26 | 51.31510 | 6.82602 | 878 ft | 146 kts | 229° |
| 2026-04-15 13:26 | 51.30873 | 6.81329 | 691 ft | 147 kts | 230° |
| 2026-04-15 13:26 | 51.30255 | 6.80003 | 497 ft | 151 kts | 232° |
| 2026-04-15 13:27 | 51.29618 | 6.78671 | 278 ft | 149 kts | 230° |
| 2026-04-15 13:27 | 51.29023 | 6.77432 | 156 ft | 127 kts | 231° |
| 2026-04-15 13:27 | 51.28620 | 6.76591 | 154 ft | 64 kts | 233° |
| 2026-04-15 13:27 | 51.28433 | 6.76193 | 154 ft | 24 kts | 231° |
| 2026-04-15 13:28 | 51.28349 | 6.76063 | 154 ft | 15 kts | 211° |
| 2026-04-15 13:28 | 51.28254 | 6.75997 | 154 ft | 14 kts | 203° |
| 2026-04-15 13:28 | 51.28156 | 6.75926 | 154 ft | 15 kts | 205° |
| 2026-04-15 13:28 | 51.28058 | 6.75854 | 154 ft | 15 kts | 205° |
| 2026-04-15 13:29 | 51.27959 | 6.75828 | 154 ft | 14 kts | 180° |
| 2026-04-15 13:29 | 51.27860 | 6.75826 | 154 ft | 14 kts | 182° |
| 2026-04-15 13:29 | 51.27765 | 6.75819 | 154 ft | 14 kts | 182° |
| 2026-04-15 13:29 | 51.27667 | 6.75817 | 154 ft | 14 kts | 179° |
| 2026-04-15 13:30 | 51.27564 | 6.75871 | 154 ft | 14 kts | 154° |
| 2026-04-15 13:30 | 51.27491 | 6.75938 | 154 ft | 11 kts | 136° |
| 2026-04-15 13:30 | 51.27477 | 6.76040 | 154 ft | 8 kts | 74° |
| 2026-04-15 13:30 | 51.27507 | 6.76170 | 154 ft | 14 kts | 75° |
| 2026-04-15 13:31 | 51.27532 | 6.76295 | 154 ft | 9 kts | 69° |
| 2026-04-15 13:31 | 51.27554 | 6.76378 | 154 ft | 6 kts | 59° |
| 2026-04-15 13:31 | 51.27596 | 6.76393 | 154 ft | 6 kts | 343° |
| 2026-04-15 13:31 | 51.27622 | 6.76377 | 154 ft | 0 kts | 338° |